<?xml version="1.0" encoding="UTF-8" standalone="no" ?>
<gpx xmlns="http://www.topografix.com/GPX/1/1" xmlns:xsi="http://www.w3.org/2001/XMLSchema-instance" xsi:schemaLocation="http://www.topografix.com/GPX/1/1 http://www.topografix.com/GPX/1/1/gpx.xsd" version="1.1" creator="VisuGPX - https://www.visugpx.com">
  <metadata>
    <name>Pla de Montcamp A</name>
  </metadata>
  <trk>
    <name><![CDATA[Pla de Montcamp A]]></name>
    <trkseg>
      <trkpt lat="42.76747" lon="1.57271">
        <ele>959.79998779297</ele>
        <time>2019-11-09T14:15:09Z</time>
      </trkpt>
      <trkpt lat="42.7674" lon="1.57272">
        <ele>964.11299968</ele>
        <time>2019-11-09T14:15:00Z</time>
      </trkpt>
      <trkpt lat="42.76727" lon="1.57286">
        <ele>969.64372469636</ele>
        <time>2019-11-09T14:14:34Z</time>
      </trkpt>
      <trkpt lat="42.76695" lon="1.57285">
        <ele>971.46923076923</ele>
        <time>2019-11-09T14:14:07Z</time>
      </trkpt>
      <trkpt lat="42.76667" lon="1.57296">
        <ele>975.0430950184</ele>
        <time>2019-11-09T14:13:41Z</time>
      </trkpt>
      <trkpt lat="42.76648" lon="1.57322">
        <ele>979.04989959275</ele>
        <time>2019-11-09T14:12:52Z</time>
      </trkpt>
      <trkpt lat="42.76647" lon="1.57349">
        <ele>984.43356721153</ele>
        <time>2019-11-09T14:11:54Z</time>
      </trkpt>
      <trkpt lat="42.76657" lon="1.5737">
        <ele>988</ele>
        <time>2019-11-09T14:11:24Z</time>
      </trkpt>
      <trkpt lat="42.76669" lon="1.5739">
        <ele>991.83783724914</ele>
        <time>2019-11-09T14:09:55Z</time>
      </trkpt>
      <trkpt lat="42.76674" lon="1.574">
        <ele>996</ele>
        <time>2019-11-09T14:07:44Z</time>
      </trkpt>
      <trkpt lat="42.7668" lon="1.57424">
        <ele>1000</ele>
        <time>2019-11-09T14:07:08Z</time>
      </trkpt>
      <trkpt lat="42.76689" lon="1.57446">
        <ele>1006.5359262046</ele>
        <time>2019-11-09T14:06:46Z</time>
      </trkpt>
      <trkpt lat="42.76697" lon="1.5747">
        <ele>1012.7005973337</ele>
        <time>2019-11-09T14:06:27Z</time>
      </trkpt>
      <trkpt lat="42.76702" lon="1.57481">
        <ele>1016.8331678782</ele>
        <time>2019-11-09T14:06:13Z</time>
      </trkpt>
      <trkpt lat="42.7671" lon="1.57486">
        <ele>1021.6483515359</ele>
        <time>2019-11-09T14:05:52Z</time>
      </trkpt>
      <trkpt lat="42.76706" lon="1.57498">
        <ele>1024.826446281</ele>
        <time>2019-11-09T14:05:42Z</time>
      </trkpt>
      <trkpt lat="42.76702" lon="1.5751">
        <ele>1028.04400128</ele>
        <time>2019-11-09T14:05:32Z</time>
      </trkpt>
      <trkpt lat="42.76696" lon="1.57521">
        <ele>1032.62199808</ele>
        <time>2019-11-09T14:05:08Z</time>
      </trkpt>
      <trkpt lat="42.76687" lon="1.57524">
        <ele>1035.6432850618</ele>
        <time>2019-11-09T14:04:58Z</time>
      </trkpt>
      <trkpt lat="42.76678" lon="1.57526">
        <ele>1039.0722509496</ele>
        <time>2019-11-09T14:04:47Z</time>
      </trkpt>
      <trkpt lat="42.76668" lon="1.5753">
        <ele>1042.4631568117</ele>
        <time>2019-11-09T14:04:33Z</time>
      </trkpt>
      <trkpt lat="42.76652" lon="1.57545">
        <ele>1047.4263094991</ele>
        <time>2019-11-09T14:04:15Z</time>
      </trkpt>
      <trkpt lat="42.76646" lon="1.57569">
        <ele>1056.4251004698</ele>
        <time>2019-11-09T14:03:40Z</time>
      </trkpt>
      <trkpt lat="42.76636" lon="1.57573">
        <ele>1060.2152154666</ele>
        <time>2019-11-09T14:03:19Z</time>
      </trkpt>
      <trkpt lat="42.76628" lon="1.57594">
        <ele>1066.3386604879</ele>
        <time>2019-11-09T14:02:50Z</time>
      </trkpt>
      <trkpt lat="42.76629" lon="1.57619">
        <ele>1073.2860035933</ele>
        <time>2019-11-09T14:02:24Z</time>
      </trkpt>
      <trkpt lat="42.76627" lon="1.57632">
        <ele>1078.7158414474</ele>
        <time>2019-11-09T14:02:04Z</time>
      </trkpt>
      <trkpt lat="42.76621" lon="1.57656">
        <ele>1083.882472325</ele>
        <time>2019-11-09T14:01:42Z</time>
      </trkpt>
      <trkpt lat="42.76614" lon="1.57678">
        <ele>1088.2468526651</ele>
        <time>2019-11-09T14:01:25Z</time>
      </trkpt>
      <trkpt lat="42.76614" lon="1.57691">
        <ele>1092.5606799794</ele>
        <time>2019-11-09T14:01:15Z</time>
      </trkpt>
      <trkpt lat="42.76598" lon="1.57706">
        <ele>1096.61999872</ele>
        <time>2019-11-09T14:00:49Z</time>
      </trkpt>
      <trkpt lat="42.76583" lon="1.5772">
        <ele>1100.6438907786</ele>
        <time>2019-11-09T14:00:28Z</time>
      </trkpt>
      <trkpt lat="42.76569" lon="1.57722">
        <ele>1103.2071736004</ele>
        <time>2019-11-09T14:00:08Z</time>
      </trkpt>
      <trkpt lat="42.7655" lon="1.57725">
        <ele>1108.224</ele>
        <time>2019-11-09T13:59:51Z</time>
      </trkpt>
      <trkpt lat="42.76531" lon="1.57755">
        <ele>1113.0239508031</ele>
        <time>2019-11-09T13:59:26Z</time>
      </trkpt>
      <trkpt lat="42.76529" lon="1.57767">
        <ele>1116.1394160528</ele>
        <time>2019-11-09T13:59:14Z</time>
      </trkpt>
      <trkpt lat="42.7653" lon="1.57792">
        <ele>1124.9397493039</ele>
        <time>2019-11-09T13:58:42Z</time>
      </trkpt>
      <trkpt lat="42.76535" lon="1.57803">
        <ele>1131.4823529412</ele>
        <time>2019-11-09T13:58:14Z</time>
      </trkpt>
      <trkpt lat="42.76537" lon="1.57816">
        <ele>1134.6257409104</ele>
        <time>2019-11-09T13:57:53Z</time>
      </trkpt>
      <trkpt lat="42.76537" lon="1.57829">
        <ele>1137.9401210762</ele>
        <time>2019-11-09T13:57:38Z</time>
      </trkpt>
      <trkpt lat="42.76541" lon="1.57857">
        <ele>1142.82599936</ele>
        <time>2019-11-09T13:57:17Z</time>
      </trkpt>
      <trkpt lat="42.76547" lon="1.57881">
        <ele>1148.0646439206</ele>
        <time>2019-11-09T13:56:56Z</time>
      </trkpt>
      <trkpt lat="42.76548" lon="1.57895">
        <ele>1152.2398408689</ele>
        <time>2019-11-09T13:56:41Z</time>
      </trkpt>
      <trkpt lat="42.76538" lon="1.57917">
        <ele>1158.1245204598</ele>
        <time>2019-11-09T13:55:52Z</time>
      </trkpt>
      <trkpt lat="42.76548" lon="1.57941">
        <ele>1164.0230220842</ele>
        <time>2019-11-09T13:55:26Z</time>
      </trkpt>
      <trkpt lat="42.76543" lon="1.57965">
        <ele>1168.6447095283</ele>
        <time>2019-11-09T13:54:58Z</time>
      </trkpt>
      <trkpt lat="42.76541" lon="1.57978">
        <ele>1172.1072796935</ele>
        <time>2019-11-09T13:54:42Z</time>
      </trkpt>
      <trkpt lat="42.76528" lon="1.57997">
        <ele>1175.8131864338</ele>
        <time>2019-11-09T13:54:13Z</time>
      </trkpt>
      <trkpt lat="42.76522" lon="1.58022">
        <ele>1181.5329331526</ele>
        <time>2019-11-09T13:53:47Z</time>
      </trkpt>
      <trkpt lat="42.76525" lon="1.58049">
        <ele>1186.02297735</ele>
        <time>2019-11-09T13:53:17Z</time>
      </trkpt>
      <trkpt lat="42.76527" lon="1.58074">
        <ele>1191.8426290453</ele>
        <time>2019-11-09T13:52:47Z</time>
      </trkpt>
      <trkpt lat="42.76532" lon="1.58085">
        <ele>1195.4712979565</ele>
        <time>2019-11-09T13:52:34Z</time>
      </trkpt>
      <trkpt lat="42.76531" lon="1.58098">
        <ele>1200.1543028171</ele>
        <time>2019-11-09T13:52:14Z</time>
      </trkpt>
      <trkpt lat="42.76533" lon="1.58111">
        <ele>1203.8318318857</ele>
        <time>2019-11-09T13:51:53Z</time>
      </trkpt>
      <trkpt lat="42.76529" lon="1.58138">
        <ele>1210.2298498642</ele>
        <time>2019-11-09T13:51:15Z</time>
      </trkpt>
      <trkpt lat="42.76522" lon="1.58159">
        <ele>1215.8306766534</ele>
        <time>2019-11-09T13:50:47Z</time>
      </trkpt>
      <trkpt lat="42.7651" lon="1.58179">
        <ele>1224.9318624012</ele>
        <time>2019-11-09T13:49:59Z</time>
      </trkpt>
      <trkpt lat="42.76507" lon="1.58191">
        <ele>1228.2520141935</ele>
        <time>2019-11-09T13:49:47Z</time>
      </trkpt>
      <trkpt lat="42.76508" lon="1.58203">
        <ele>1232.1386125062</ele>
        <time>2019-11-09T13:49:35Z</time>
      </trkpt>
      <trkpt lat="42.7651" lon="1.58228">
        <ele>1238</ele>
        <time>2019-11-09T13:49:11Z</time>
      </trkpt>
      <trkpt lat="42.7651" lon="1.58254">
        <ele>1242.8039586193</ele>
        <time>2019-11-09T13:48:42Z</time>
      </trkpt>
      <trkpt lat="42.76506" lon="1.58278">
        <ele>1246.2202191506</ele>
        <time>2019-11-09T13:48:21Z</time>
      </trkpt>
      <trkpt lat="42.76506" lon="1.58291">
        <ele>1248.3113115319</ele>
        <time>2019-11-09T13:48:09Z</time>
      </trkpt>
      <trkpt lat="42.76499" lon="1.58319">
        <ele>1255.0248752797</ele>
        <time>2019-11-09T13:47:47Z</time>
      </trkpt>
      <trkpt lat="42.76494" lon="1.58358">
        <ele>1260.4437866312</ele>
        <time>2019-11-09T13:47:13Z</time>
      </trkpt>
      <trkpt lat="42.76486" lon="1.58381">
        <ele>1264.0220421785</ele>
        <time>2019-11-09T13:46:51Z</time>
      </trkpt>
      <trkpt lat="42.76479" lon="1.58403">
        <ele>1268.752761969</ele>
        <time>2019-11-09T13:46:32Z</time>
      </trkpt>
      <trkpt lat="42.76473" lon="1.58427">
        <ele>1272.8275513427</ele>
        <time>2019-11-09T13:46:12Z</time>
      </trkpt>
      <trkpt lat="42.76467" lon="1.58436">
        <ele>1273</ele>
        <time>2019-11-09T13:46:03Z</time>
      </trkpt>
      <trkpt lat="42.76451" lon="1.58472">
        <ele>1278.1373113912</ele>
        <time>2019-11-09T13:45:34Z</time>
      </trkpt>
      <trkpt lat="42.76438" lon="1.58492">
        <ele>1282.6236232619</ele>
        <time>2019-11-09T13:45:13Z</time>
      </trkpt>
      <trkpt lat="42.76425" lon="1.58512">
        <ele>1286</ele>
        <time>2019-11-09T13:44:51Z</time>
      </trkpt>
      <trkpt lat="42.76417" lon="1.58519">
        <ele>1286.1565474954</ele>
        <time>2019-11-09T13:44:42Z</time>
      </trkpt>
      <trkpt lat="42.76408" lon="1.58526">
        <ele>1289.821178673</ele>
        <time>2019-11-09T13:44:28Z</time>
      </trkpt>
      <trkpt lat="42.76399" lon="1.58534">
        <ele>1293.0120120082</ele>
        <time>2019-11-09T13:44:11Z</time>
      </trkpt>
      <trkpt lat="42.76384" lon="1.58548">
        <ele>1296.1317351654</ele>
        <time>2019-11-09T13:43:55Z</time>
      </trkpt>
      <trkpt lat="42.76375" lon="1.58552">
        <ele>1299.6237415686</ele>
        <time>2019-11-09T13:43:39Z</time>
      </trkpt>
      <trkpt lat="42.76366" lon="1.5856">
        <ele>1302.8847736626</ele>
        <time>2019-11-09T13:43:23Z</time>
      </trkpt>
      <trkpt lat="42.76348" lon="1.58569">
        <ele>1307.8404352757</ele>
        <time>2019-11-09T13:42:56Z</time>
      </trkpt>
      <trkpt lat="42.76339" lon="1.58568">
        <ele>1311.0216491404</ele>
        <time>2019-11-09T13:42:41Z</time>
      </trkpt>
      <trkpt lat="42.7632" lon="1.58574">
        <ele>1314.6206199357</ele>
        <time>2019-11-09T13:42:19Z</time>
      </trkpt>
      <trkpt lat="42.76305" lon="1.58587">
        <ele>1322.4405592617</ele>
        <time>2019-11-09T13:41:44Z</time>
      </trkpt>
      <trkpt lat="42.76314" lon="1.58608">
        <ele>1327.824175768</ele>
        <time>2019-11-09T13:41:12Z</time>
      </trkpt>
      <trkpt lat="42.76326" lon="1.58626">
        <ele>1331</ele>
        <time>2019-11-09T13:40:50Z</time>
      </trkpt>
      <trkpt lat="42.76332" lon="1.58635">
        <ele>1331</ele>
        <time>2019-11-09T13:40:43Z</time>
      </trkpt>
      <trkpt lat="42.76348" lon="1.58653">
        <ele>1334.2223316996</ele>
        <time>2019-11-09T13:40:19Z</time>
      </trkpt>
      <trkpt lat="42.76365" lon="1.58665">
        <ele>1338.0306617509</ele>
        <time>2019-11-09T13:39:47Z</time>
      </trkpt>
      <trkpt lat="42.7638" lon="1.5868">
        <ele>1341.2811543461</ele>
        <time>2019-11-09T13:39:26Z</time>
      </trkpt>
      <trkpt lat="42.76388" lon="1.58686">
        <ele>1344.4548086154</ele>
        <time>2019-11-09T13:39:14Z</time>
      </trkpt>
      <trkpt lat="42.76402" lon="1.58702">
        <ele>1349.4271542418</ele>
        <time>2019-11-09T13:38:44Z</time>
      </trkpt>
      <trkpt lat="42.76408" lon="1.58711">
        <ele>1353.2112104532</ele>
        <time>2019-11-09T13:38:29Z</time>
      </trkpt>
      <trkpt lat="42.7642" lon="1.5873">
        <ele>1354</ele>
        <time>2019-11-09T13:38:02Z</time>
      </trkpt>
      <trkpt lat="42.76441" lon="1.58755">
        <ele>1358.91099904</ele>
        <time>2019-11-09T13:37:22Z</time>
      </trkpt>
      <trkpt lat="42.76447" lon="1.58766">
        <ele>1362.02199808</ele>
        <time>2019-11-09T13:37:11Z</time>
      </trkpt>
      <trkpt lat="42.7646" lon="1.58784">
        <ele>1366.4595154131</ele>
        <time>2019-11-09T13:36:54Z</time>
      </trkpt>
      <trkpt lat="42.76473" lon="1.58818">
        <ele>1373</ele>
        <time>2019-11-09T13:36:21Z</time>
      </trkpt>
      <trkpt lat="42.76476" lon="1.5883">
        <ele>1373.1466011008</ele>
        <time>2019-11-09T13:36:10Z</time>
      </trkpt>
      <trkpt lat="42.76479" lon="1.58855">
        <ele>1377</ele>
        <time>2019-11-09T13:34:39Z</time>
      </trkpt>
      <trkpt lat="42.76488" lon="1.58855">
        <ele>1376.84399616</ele>
        <time>2019-11-09T13:31:59Z</time>
      </trkpt>
      <trkpt lat="42.76486" lon="1.58867">
        <ele>1380.4266918266</ele>
        <time>2019-11-09T13:31:49Z</time>
      </trkpt>
      <trkpt lat="42.76479" lon="1.58891">
        <ele>1386.1407313626</ele>
        <time>2019-11-09T13:31:24Z</time>
      </trkpt>
      <trkpt lat="42.7648" lon="1.58915">
        <ele>1390.033431765</ele>
        <time>2019-11-09T13:31:01Z</time>
      </trkpt>
      <trkpt lat="42.76475" lon="1.58927">
        <ele>1393.2452647672</ele>
        <time>2019-11-09T13:30:51Z</time>
      </trkpt>
      <trkpt lat="42.76474" lon="1.5894">
        <ele>1395</ele>
        <time>2019-11-09T13:27:23Z</time>
      </trkpt>
      <trkpt lat="42.7646" lon="1.58926">
        <ele>1402.32999808</ele>
        <time>2019-11-09T13:26:21Z</time>
      </trkpt>
      <trkpt lat="42.76444" lon="1.58913">
        <ele>1409.4121750661</ele>
        <time>2019-11-09T13:25:47Z</time>
      </trkpt>
      <trkpt lat="42.76428" lon="1.589">
        <ele>1414.2358775159</ele>
        <time>2019-11-09T13:25:21Z</time>
      </trkpt>
      <trkpt lat="42.7642" lon="1.58905">
        <ele>1417.82199808</ele>
        <time>2019-11-09T13:25:02Z</time>
      </trkpt>
      <trkpt lat="42.76411" lon="1.58909">
        <ele>1421.9472055057</ele>
        <time>2019-11-09T13:24:48Z</time>
      </trkpt>
      <trkpt lat="42.76396" lon="1.58917">
        <ele>1430.4520690555</ele>
        <time>2019-11-09T13:24:14Z</time>
      </trkpt>
      <trkpt lat="42.76399" lon="1.58929">
        <ele>1434.435642021</ele>
        <time>2019-11-09T13:23:54Z</time>
      </trkpt>
      <trkpt lat="42.76402" lon="1.58941">
        <ele>1439.6206174874</ele>
        <time>2019-11-09T13:23:36Z</time>
      </trkpt>
      <trkpt lat="42.76403" lon="1.58953">
        <ele>1443.0222202972</ele>
        <time>2019-11-09T13:23:21Z</time>
      </trkpt>
      <trkpt lat="42.76394" lon="1.58957">
        <ele>1446.2297015574</ele>
        <time>2019-11-09T13:23:05Z</time>
      </trkpt>
      <trkpt lat="42.76386" lon="1.58962">
        <ele>1449.4550953349</ele>
        <time>2019-11-09T13:22:53Z</time>
      </trkpt>
      <trkpt lat="42.76357" lon="1.58966">
        <ele>1452.6390528511</ele>
        <time>2019-11-09T13:22:29Z</time>
      </trkpt>
      <trkpt lat="42.76332" lon="1.58983">
        <ele>1457.2429406452</ele>
        <time>2019-11-09T13:21:57Z</time>
      </trkpt>
      <trkpt lat="42.76314" lon="1.58985">
        <ele>1463.13299712</ele>
        <time>2019-11-09T13:21:34Z</time>
      </trkpt>
      <trkpt lat="42.76297" lon="1.58993">
        <ele>1467</ele>
        <time>2019-11-09T13:21:10Z</time>
      </trkpt>
      <trkpt lat="42.7628" lon="1.59004">
        <ele>1474.4328344522</ele>
        <time>2019-11-09T13:20:44Z</time>
      </trkpt>
      <trkpt lat="42.76271" lon="1.59005">
        <ele>1478.0230105747</ele>
        <time>2019-11-09T13:20:31Z</time>
      </trkpt>
      <trkpt lat="42.76263" lon="1.59011">
        <ele>1481.7174568403</ele>
        <time>2019-11-09T13:20:04Z</time>
      </trkpt>
      <trkpt lat="42.76245" lon="1.59015">
        <ele>1488.8117291348</ele>
        <time>2019-11-09T13:19:32Z</time>
      </trkpt>
      <trkpt lat="42.76237" lon="1.5902">
        <ele>1492.04</ele>
        <time>2019-11-09T13:19:21Z</time>
      </trkpt>
      <trkpt lat="42.76229" lon="1.59028">
        <ele>1494.1189295202</ele>
        <time>2019-11-09T13:19:10Z</time>
      </trkpt>
      <trkpt lat="42.76205" lon="1.5905">
        <ele>1497</ele>
        <time>2019-11-09T13:18:45Z</time>
      </trkpt>
      <trkpt lat="42.76178" lon="1.59043">
        <ele>1502.4415579434</ele>
        <time>2019-11-09T13:18:19Z</time>
      </trkpt>
      <trkpt lat="42.76159" lon="1.59041">
        <ele>1507.0110877419</ele>
        <time>2019-11-09T13:17:51Z</time>
      </trkpt>
      <trkpt lat="42.76151" lon="1.5905">
        <ele>1514.856261614</ele>
        <time>2019-11-09T13:17:17Z</time>
      </trkpt>
      <trkpt lat="42.76149" lon="1.59063">
        <ele>1515.0616921988</ele>
        <time>2019-11-09T13:17:02Z</time>
      </trkpt>
      <trkpt lat="42.76148" lon="1.59076">
        <ele>1518.22199808</ele>
        <time>2019-11-09T13:16:50Z</time>
      </trkpt>
      <trkpt lat="42.76145" lon="1.59088">
        <ele>1519.3822050175</ele>
        <time>2019-11-09T13:16:35Z</time>
      </trkpt>
      <trkpt lat="42.76138" lon="1.59096">
        <ele>1519.4174077413</ele>
        <time>2019-11-09T13:16:27Z</time>
      </trkpt>
      <trkpt lat="42.76119" lon="1.59098">
        <ele>1523.4168311022</ele>
        <time>2019-11-09T13:16:07Z</time>
      </trkpt>
      <trkpt lat="42.761" lon="1.591">
        <ele>1529.33299712</ele>
        <time>2019-11-09T13:15:50Z</time>
      </trkpt>
      <trkpt lat="42.76082" lon="1.59106">
        <ele>1534.22199808</ele>
        <time>2019-11-09T13:15:30Z</time>
      </trkpt>
      <trkpt lat="42.76064" lon="1.59111">
        <ele>1541.0690700079</ele>
        <time>2019-11-09T13:14:31Z</time>
      </trkpt>
      <trkpt lat="42.76054" lon="1.59111">
        <ele>1544.4231534223</ele>
        <time>2019-11-09T13:14:17Z</time>
      </trkpt>
      <trkpt lat="42.7604" lon="1.59115">
        <ele>1551.41099904</ele>
        <time>2019-11-09T13:13:37Z</time>
      </trkpt>
      <trkpt lat="42.76022" lon="1.59124">
        <ele>1556.0921044108</ele>
        <time>2019-11-09T13:12:55Z</time>
      </trkpt>
      <trkpt lat="42.76012" lon="1.59127">
        <ele>1560.4684695997</ele>
        <time>2019-11-09T13:12:44Z</time>
      </trkpt>
      <trkpt lat="42.75994" lon="1.59132">
        <ele>1569</ele>
        <time>2019-11-09T13:12:11Z</time>
      </trkpt>
      <trkpt lat="42.75984" lon="1.59131">
        <ele>1573.8173563518</ele>
        <time>2019-11-09T13:11:44Z</time>
      </trkpt>
      <trkpt lat="42.75976" lon="1.59135">
        <ele>1578</ele>
        <time>2019-11-09T13:11:26Z</time>
      </trkpt>
      <trkpt lat="42.75961" lon="1.5915">
        <ele>1584.6336629648</ele>
        <time>2019-11-09T13:10:29Z</time>
      </trkpt>
      <trkpt lat="42.75953" lon="1.59157">
        <ele>1589</ele>
        <time>2019-11-09T13:06:57Z</time>
      </trkpt>
      <trkpt lat="42.75944" lon="1.59158">
        <ele>1589</ele>
        <time>2019-11-09T13:02:19Z</time>
      </trkpt>
      <trkpt lat="42.75945" lon="1.5916">
        <ele>1589.5869352397</ele>
        <time>2019-11-09T13:01:27Z</time>
      </trkpt>
      <trkpt lat="42.75921" lon="1.59178">
        <ele>1593.82199808</ele>
        <time>2019-11-09T13:01:02Z</time>
      </trkpt>
      <trkpt lat="42.75913" lon="1.59184">
        <ele>1598.0330301819</ele>
        <time>2019-11-09T13:00:51Z</time>
      </trkpt>
      <trkpt lat="42.75906" lon="1.59192">
        <ele>1601.6251260703</ele>
        <time>2019-11-09T13:00:39Z</time>
      </trkpt>
      <trkpt lat="42.75889" lon="1.59204">
        <ele>1606.8399581137</ele>
        <time>2019-11-09T13:00:15Z</time>
      </trkpt>
      <trkpt lat="42.75873" lon="1.59217">
        <ele>1611.5872842016</ele>
        <time>2019-11-09T12:59:54Z</time>
      </trkpt>
      <trkpt lat="42.75866" lon="1.59225">
        <ele>1615.4693469043</ele>
        <time>2019-11-09T12:59:44Z</time>
      </trkpt>
      <trkpt lat="42.75851" lon="1.59241">
        <ele>1620.4786995399</ele>
        <time>2019-11-09T12:59:25Z</time>
      </trkpt>
      <trkpt lat="42.75844" lon="1.59249">
        <ele>1623.5532525108</ele>
        <time>2019-11-09T12:59:16Z</time>
      </trkpt>
      <trkpt lat="42.75828" lon="1.59264">
        <ele>1628.1567217494</ele>
        <time>2019-11-09T12:58:54Z</time>
      </trkpt>
      <trkpt lat="42.75813" lon="1.59279">
        <ele>1631.7112880291</ele>
        <time>2019-11-09T12:58:34Z</time>
      </trkpt>
      <trkpt lat="42.75801" lon="1.59297">
        <ele>1635.4304697387</ele>
        <time>2019-11-09T12:58:17Z</time>
      </trkpt>
      <trkpt lat="42.75788" lon="1.59316">
        <ele>1638.84199808</ele>
        <time>2019-11-09T12:57:55Z</time>
      </trkpt>
      <trkpt lat="42.75775" lon="1.59335">
        <ele>1642.5166496818</ele>
        <time>2019-11-09T12:57:36Z</time>
      </trkpt>
      <trkpt lat="42.75758" lon="1.59366">
        <ele>1646</ele>
        <time>2019-11-09T12:57:09Z</time>
      </trkpt>
      <trkpt lat="42.75726" lon="1.59415">
        <ele>1648.80999936</ele>
        <time>2019-11-09T12:56:14Z</time>
      </trkpt>
      <trkpt lat="42.75695" lon="1.59479">
        <ele>1651.83299712</ele>
        <time>2019-11-09T12:55:15Z</time>
      </trkpt>
      <trkpt lat="42.75678" lon="1.5951">
        <ele>1658.3637267262</ele>
        <time>2019-11-09T12:54:40Z</time>
      </trkpt>
      <trkpt lat="42.75666" lon="1.5953">
        <ele>1662.6140863492</ele>
        <time>2019-11-09T12:54:15Z</time>
      </trkpt>
      <trkpt lat="42.75657" lon="1.59552">
        <ele>1665.9158779382</ele>
        <time>2019-11-09T12:53:52Z</time>
      </trkpt>
      <trkpt lat="42.75654" lon="1.59564">
        <ele>1666</ele>
        <time>2019-11-09T12:53:40Z</time>
      </trkpt>
      <trkpt lat="42.75644" lon="1.59585">
        <ele>1669</ele>
        <time>2019-11-09T12:53:11Z</time>
      </trkpt>
      <trkpt lat="42.75636" lon="1.59609">
        <ele>1673.0323219603</ele>
        <time>2019-11-09T12:52:46Z</time>
      </trkpt>
      <trkpt lat="42.7563" lon="1.59632">
        <ele>1677.54464</ele>
        <time>2019-11-09T12:52:16Z</time>
      </trkpt>
      <trkpt lat="42.75621" lon="1.59654">
        <ele>1681.6342412451</ele>
        <time>2019-11-09T12:51:45Z</time>
      </trkpt>
      <trkpt lat="42.75612" lon="1.59676">
        <ele>1687.0378479681</ele>
        <time>2019-11-09T12:51:16Z</time>
      </trkpt>
      <trkpt lat="42.756" lon="1.59695">
        <ele>1691.42199808</ele>
        <time>2019-11-09T12:49:49Z</time>
      </trkpt>
      <trkpt lat="42.7559" lon="1.59716">
        <ele>1695</ele>
        <time>2019-11-09T12:48:40Z</time>
      </trkpt>
      <trkpt lat="42.75586" lon="1.59727">
        <ele>1694.5206860074</ele>
        <time>2019-11-09T12:48:07Z</time>
      </trkpt>
      <trkpt lat="42.75578" lon="1.59751">
        <ele>1700.031218862</ele>
        <time>2019-11-09T12:47:47Z</time>
      </trkpt>
      <trkpt lat="42.75568" lon="1.59773">
        <ele>1703.61999872</ele>
        <time>2019-11-09T12:47:24Z</time>
      </trkpt>
      <trkpt lat="42.75558" lon="1.59808">
        <ele>1707.5120234145</ele>
        <time>2019-11-09T12:46:36Z</time>
      </trkpt>
      <trkpt lat="42.75551" lon="1.59832">
        <ele>1708.4794796462</ele>
        <time>2019-11-09T12:46:16Z</time>
      </trkpt>
      <trkpt lat="42.75541" lon="1.59866">
        <ele>1703.3809527515</ele>
        <time>2019-11-09T12:45:15Z</time>
      </trkpt>
      <trkpt lat="42.75534" lon="1.59889">
        <ele>1700</ele>
        <time>2019-11-09T12:44:31Z</time>
      </trkpt>
      <trkpt lat="42.75527" lon="1.59912">
        <ele>1697</ele>
        <time>2019-11-09T12:44:00Z</time>
      </trkpt>
      <trkpt lat="42.75518" lon="1.59934">
        <ele>1693.3830843807</ele>
        <time>2019-11-09T12:43:25Z</time>
      </trkpt>
      <trkpt lat="42.75509" lon="1.59955">
        <ele>1690.28900096</ele>
        <time>2019-11-09T12:42:54Z</time>
      </trkpt>
      <trkpt lat="42.75498" lon="1.59976">
        <ele>1687.1161079379</ele>
        <time>2019-11-09T12:42:30Z</time>
      </trkpt>
      <trkpt lat="42.75487" lon="1.6001">
        <ele>1692.2289383749</ele>
        <time>2019-11-09T12:41:55Z</time>
      </trkpt>
      <trkpt lat="42.75483" lon="1.60036">
        <ele>1692</ele>
        <time>2019-11-09T12:34:46Z</time>
      </trkpt>
      <trkpt lat="42.75479" lon="1.6006">
        <ele>1696.1364524157</ele>
        <time>2019-11-09T12:34:14Z</time>
      </trkpt>
      <trkpt lat="42.7547" lon="1.60096">
        <ele>1700.6430702634</ele>
        <time>2019-11-09T12:33:44Z</time>
      </trkpt>
      <trkpt lat="42.75468" lon="1.60122">
        <ele>1704.7141435524</ele>
        <time>2019-11-09T12:33:24Z</time>
      </trkpt>
      <trkpt lat="42.75464" lon="1.60136">
        <ele>1705</ele>
        <time>2019-11-09T12:33:15Z</time>
      </trkpt>
      <trkpt lat="42.7545" lon="1.60197">
        <ele>1712.37699328</ele>
        <time>2019-11-09T12:32:32Z</time>
      </trkpt>
      <trkpt lat="42.75437" lon="1.60245">
        <ele>1716.7345897514</ele>
        <time>2019-11-09T12:31:52Z</time>
      </trkpt>
      <trkpt lat="42.75433" lon="1.60258">
        <ele>1721</ele>
        <time>2019-11-09T12:31:40Z</time>
      </trkpt>
      <trkpt lat="42.75427" lon="1.60282">
        <ele>1724.3435657229</ele>
        <time>2019-11-09T12:31:19Z</time>
      </trkpt>
      <trkpt lat="42.75423" lon="1.60295">
        <ele>1722.66599424</ele>
        <time>2019-11-09T12:31:10Z</time>
      </trkpt>
      <trkpt lat="42.75421" lon="1.60308">
        <ele>1728.6336313597</ele>
        <time>2019-11-09T12:30:59Z</time>
      </trkpt>
      <trkpt lat="42.75415" lon="1.60332">
        <ele>1735.0476638038</ele>
        <time>2019-11-09T12:29:54Z</time>
      </trkpt>
      <trkpt lat="42.75411" lon="1.60344">
        <ele>1739.49999872</ele>
        <time>2019-11-09T12:29:45Z</time>
      </trkpt>
      <trkpt lat="42.75399" lon="1.60379">
        <ele>1744.1437112056</ele>
        <time>2019-11-09T12:29:14Z</time>
      </trkpt>
      <trkpt lat="42.75394" lon="1.6039">
        <ele>1742.2469898795</ele>
        <time>2019-11-09T12:29:02Z</time>
      </trkpt>
      <trkpt lat="42.75392" lon="1.60401">
        <ele>1749</ele>
        <time>2019-11-09T12:28:51Z</time>
      </trkpt>
      <trkpt lat="42.75388" lon="1.60413">
        <ele>1751.2211251606</ele>
        <time>2019-11-09T12:19:39Z</time>
      </trkpt>
      <trkpt lat="42.75385" lon="1.60425">
        <ele>1754.2222205139</ele>
        <time>2019-11-09T12:19:20Z</time>
      </trkpt>
      <trkpt lat="42.75384" lon="1.6045">
        <ele>1757.4686845858</ele>
        <time>2019-11-09T12:18:55Z</time>
      </trkpt>
      <trkpt lat="42.75382" lon="1.60475">
        <ele>1759</ele>
        <time>2019-11-09T12:18:35Z</time>
      </trkpt>
      <trkpt lat="42.75377" lon="1.605">
        <ele>1763.662311232</ele>
        <time>2019-11-09T12:18:12Z</time>
      </trkpt>
      <trkpt lat="42.75374" lon="1.60512">
        <ele>1766.0236919815</ele>
        <time>2019-11-09T12:18:01Z</time>
      </trkpt>
      <trkpt lat="42.75359" lon="1.60527">
        <ele>1767</ele>
        <time>2019-11-09T12:17:42Z</time>
      </trkpt>
      <trkpt lat="42.75347" lon="1.60546">
        <ele>1772.5499968</ele>
        <time>2019-11-09T12:17:17Z</time>
      </trkpt>
      <trkpt lat="42.75344" lon="1.60559">
        <ele>1776.4720486771</ele>
        <time>2019-11-09T12:17:04Z</time>
      </trkpt>
      <trkpt lat="42.75338" lon="1.60582">
        <ele>1783.01099904</ele>
        <time>2019-11-09T12:16:41Z</time>
      </trkpt>
      <trkpt lat="42.75326" lon="1.60604">
        <ele>1784.4815192748</ele>
        <time>2019-11-09T12:16:16Z</time>
      </trkpt>
      <trkpt lat="42.75318" lon="1.60627">
        <ele>1789.0518936195</ele>
        <time>2019-11-09T12:15:54Z</time>
      </trkpt>
      <trkpt lat="42.75313" lon="1.60637">
        <ele>1793.23999744</ele>
        <time>2019-11-09T12:15:44Z</time>
      </trkpt>
      <trkpt lat="42.75302" lon="1.60657">
        <ele>1799.0435199862</ele>
        <time>2019-11-09T12:15:21Z</time>
      </trkpt>
      <trkpt lat="42.75296" lon="1.60668">
        <ele>1802.2404405572</ele>
        <time>2019-11-09T12:15:07Z</time>
      </trkpt>
      <trkpt lat="42.75284" lon="1.60688">
        <ele>1805.5499968</ele>
        <time>2019-11-09T12:14:49Z</time>
      </trkpt>
      <trkpt lat="42.75277" lon="1.60697">
        <ele>1809.5166827152</ele>
        <time>2019-11-09T12:14:36Z</time>
      </trkpt>
      <trkpt lat="42.75269" lon="1.6072">
        <ele>1818.92999808</ele>
        <time>2019-11-09T12:14:09Z</time>
      </trkpt>
      <trkpt lat="42.75255" lon="1.60739">
        <ele>1822.5784855814</ele>
        <time>2019-11-09T12:13:46Z</time>
      </trkpt>
      <trkpt lat="42.75251" lon="1.60751">
        <ele>1826.04399616</ele>
        <time>2019-11-09T12:13:36Z</time>
      </trkpt>
      <trkpt lat="42.75247" lon="1.60763">
        <ele>1830.5549952</ele>
        <time>2019-11-09T12:13:26Z</time>
      </trkpt>
      <trkpt lat="42.75245" lon="1.60788">
        <ele>1834</ele>
        <time>2019-11-09T12:13:06Z</time>
      </trkpt>
      <trkpt lat="42.75229" lon="1.60818">
        <ele>1836.6406861742</ele>
        <time>2019-11-09T12:12:29Z</time>
      </trkpt>
      <trkpt lat="42.75216" lon="1.60838">
        <ele>1840.6323092497</ele>
        <time>2019-11-09T12:12:09Z</time>
      </trkpt>
      <trkpt lat="42.75205" lon="1.60859">
        <ele>1844.63299712</ele>
        <time>2019-11-09T12:11:49Z</time>
      </trkpt>
      <trkpt lat="42.7519" lon="1.60874">
        <ele>1848.9650359576</ele>
        <time>2019-11-09T12:11:29Z</time>
      </trkpt>
      <trkpt lat="42.7518" lon="1.60895">
        <ele>1853.6213786648</ele>
        <time>2019-11-09T12:11:09Z</time>
      </trkpt>
      <trkpt lat="42.7517" lon="1.60917">
        <ele>1858.9324043707</ele>
        <time>2019-11-09T12:10:42Z</time>
      </trkpt>
      <trkpt lat="42.75166" lon="1.60929">
        <ele>1862.0549952</ele>
        <time>2019-11-09T12:10:31Z</time>
      </trkpt>
      <trkpt lat="42.75162" lon="1.6094">
        <ele>1867.0441285598</ele>
        <time>2019-11-09T12:10:21Z</time>
      </trkpt>
      <trkpt lat="42.7515" lon="1.60958">
        <ele>1872.78900096</ele>
        <time>2019-11-09T12:09:39Z</time>
      </trkpt>
      <trkpt lat="42.75144" lon="1.60968">
        <ele>1876.16299904</ele>
        <time>2019-11-09T12:08:34Z</time>
      </trkpt>
      <trkpt lat="42.75141" lon="1.6098">
        <ele>1880.0742538935</ele>
        <time>2019-11-09T12:08:25Z</time>
      </trkpt>
      <trkpt lat="42.75134" lon="1.61003">
        <ele>1883.9525210041</ele>
        <time>2019-11-09T12:08:09Z</time>
      </trkpt>
      <trkpt lat="42.7512" lon="1.61021">
        <ele>1887.6430017967</ele>
        <time>2019-11-09T12:07:54Z</time>
      </trkpt>
      <trkpt lat="42.75112" lon="1.61028">
        <ele>1891.2504910451</ele>
        <time>2019-11-09T12:07:44Z</time>
      </trkpt>
      <trkpt lat="42.75104" lon="1.61033">
        <ele>1895.764458843</ele>
        <time>2019-11-09T12:07:32Z</time>
      </trkpt>
      <trkpt lat="42.75084" lon="1.6106">
        <ele>1898</ele>
        <time>2019-11-09T12:06:48Z</time>
      </trkpt>
      <trkpt lat="42.75054" lon="1.61109">
        <ele>1898.042166747</ele>
        <time>2019-11-09T12:06:01Z</time>
      </trkpt>
      <trkpt lat="42.75037" lon="1.61121">
        <ele>1901.6137032409</ele>
        <time>2019-11-09T12:05:45Z</time>
      </trkpt>
      <trkpt lat="42.75012" lon="1.61144">
        <ele>1903.2255481194</ele>
        <time>2019-11-09T12:05:20Z</time>
      </trkpt>
      <trkpt lat="42.75007" lon="1.61156">
        <ele>1905.11099904</ele>
        <time>2019-11-09T12:05:10Z</time>
      </trkpt>
      <trkpt lat="42.7499" lon="1.61191">
        <ele>1908</ele>
        <time>2019-11-09T12:04:42Z</time>
      </trkpt>
      <trkpt lat="42.74977" lon="1.61239">
        <ele>1905</ele>
        <time>2019-11-09T12:03:50Z</time>
      </trkpt>
      <trkpt lat="42.74973" lon="1.6125">
        <ele>1905</ele>
        <time>2019-11-09T12:03:42Z</time>
      </trkpt>
      <trkpt lat="42.74953" lon="1.61295">
        <ele>1905.033596163</ele>
        <time>2019-11-09T12:02:46Z</time>
      </trkpt>
      <trkpt lat="42.7494" lon="1.61329">
        <ele>1907</ele>
        <time>2019-11-09T12:02:19Z</time>
      </trkpt>
      <trkpt lat="42.74933" lon="1.61337">
        <ele>1905.5568852331</ele>
        <time>2019-11-09T11:55:19Z</time>
      </trkpt>
      <trkpt lat="42.74932" lon="1.61337">
        <ele>1906</ele>
        <time>2019-11-09T11:14:42Z</time>
      </trkpt>
    </trkseg>
  </trk>
</gpx>